createdAt,value
2019-01-04T00:04:14.644Z,98394.37
2019-01-04T00:06:48.246Z,98397.02
2019-01-04T00:09:19.463Z,98391.50
2019-01-04T00:11:54.261Z,98386.61
2019-01-04T00:14:26.742Z,98388.32
2019-01-04T00:16:57.508Z,98396.31
2019-01-04T00:19:28.799Z,98400.48
2019-01-04T00:22:03.539Z,98402.14
2019-01-04T00:24:33.755Z,98400.52
2019-01-04T00:27:11.104Z,98397.15
2019-01-04T00:29:41.987Z,98393.81
2019-01-04T00:32:11.914Z,98411.88
2019-01-04T00:34:41.874Z,98441.55
2019-01-04T00:37:11.975Z,98440.20
2019-01-04T00:39:43.401Z,98426.20
2019-01-04T00:42:15.053Z,98436.42
2019-01-04T00:44:44.863Z,98437.87
2019-01-04T00:47:21.482Z,98429.36
2019-01-04T00:49:51.487Z,98435.14
2019-01-04T00:52:21.676Z,98432.95
2019-01-04T00:54:53.729Z,98433.80
2019-01-04T00:57:35.524Z,98434.00
2019-01-04T01:00:35.322Z,98438.94
2019-01-04T01:03:30.643Z,98439.72
2019-01-04T01:06:39.943Z,98439.00
2019-01-04T01:09:26.123Z,98443.03
2019-01-04T01:12:12.596Z,98445.44
2019-01-04T01:15:18.768Z,98451.59
2019-01-04T01:18:08.034Z,98450.11
2019-01-04T01:20:56.796Z,98448.80
2019-01-04T01:23:46.341Z,98444.92
2019-01-04T01:26:40.444Z,98439.27
2019-01-04T01:29:32.977Z,98439.55
2019-01-04T01:32:39.552Z,98438.08
2019-01-04T01:35:31.876Z,98441.09
2019-01-04T01:38:23.005Z,98439.91
2019-01-04T01:41:14.259Z,98446.13
2019-01-04T01:43:53.255Z,98458.61
2019-01-04T01:46:35.978Z,98455.16
2019-01-04T01:49:12.668Z,98446.50
2019-01-04T01:51:57.331Z,98439.17
2019-01-04T01:54:28.315Z,98441.80
2019-01-04T01:57:02.872Z,98438.33
2019-01-04T01:59:34.311Z,98442.05
2019-01-04T02:02:05.877Z,98431.40
2019-01-04T02:04:35.829Z,98433.52
2019-01-04T02:07:06.554Z,98436.14
2019-01-04T02:09:36.465Z,98432.81
2019-01-04T02:12:12.114Z,98425.14
2019-01-04T02:14:43.532Z,98428.05
2019-01-04T02:17:14.778Z,98427.07
2019-01-04T02:19:44.951Z,98430.13
2019-01-04T02:22:15.619Z,98429.24
2019-01-04T02:24:45.477Z,98428.44
2019-01-04T02:27:16.991Z,98425.58
2019-01-04T02:29:46.905Z,98425.46
2019-01-04T02:32:16.724Z,98426.09
2019-01-04T02:34:48.299Z,98429.14
2019-01-04T02:37:24.282Z,98433.94
2019-01-04T02:39:56.688Z,98442.77
2019-01-04T02:42:26.595Z,98446.17
2019-01-04T02:44:56.442Z,98439.97
2019-01-04T02:47:26.200Z,98438.05
2019-01-04T02:49:56.180Z,98437.06
2019-01-04T02:52:26.204Z,98438.25
2019-01-04T02:54:56.109Z,98444.44
2019-01-04T02:57:25.934Z,98451.01
2019-01-04T02:59:56.107Z,98446.36
2019-01-04T03:02:31.645Z,98440.61
2019-01-04T03:05:03.564Z,98434.04
2019-01-04T03:07:33.352Z,98442.41
2019-01-04T03:10:03.395Z,98433.66
2019-01-04T03:12:33.621Z,98432.75
2019-01-04T03:15:04.352Z,98437.00
2019-01-04T03:17:34.276Z,98427.33
2019-01-04T03:20:04.703Z,98426.89
2019-01-04T03:22:34.610Z,98414.95
2019-01-04T03:25:04.859Z,98416.88
2019-01-04T03:27:34.745Z,98424.48
2019-01-04T03:30:05.718Z,98429.56
2019-01-04T03:32:35.620Z,98432.13
2019-01-04T03:35:05.720Z,98427.83
2019-01-04T03:37:35.835Z,98435.05
2019-01-04T03:40:08.569Z,98426.62
2019-01-04T03:42:39.649Z,98431.03
2019-01-04T03:45:11.517Z,98427.62
2019-01-04T03:47:41.613Z,98432.32
2019-01-04T03:50:12.596Z,98428.95
2019-01-04T03:52:42.762Z,98416.97
2019-01-04T03:55:14.052Z,98425.71
2019-01-04T03:57:44.195Z,98428.00
2019-01-04T04:00:14.395Z,98430.51
2019-01-04T04:02:49.016Z,98441.02
2019-01-04T04:05:19.964Z,98438.10
2019-01-04T04:07:50.050Z,98437.33
2019-01-04T04:10:19.970Z,98437.48
2019-01-04T04:12:49.794Z,98435.72
2019-01-04T04:15:20.341Z,98433.99
2019-01-04T04:17:50.297Z,98430.27
2019-01-04T04:20:20.179Z,98434.00
2019-01-04T04:22:51.355Z,98434.84
2019-01-04T04:25:21.492Z,98431.93
2019-01-04T04:27:51.886Z,98429.42
2019-01-04T04:30:22.910Z,98433.47
2019-01-04T04:32:52.817Z,98424.23
2019-01-04T04:35:24.170Z,98434.73
2019-01-04T04:37:54.182Z,98427.86
2019-01-04T04:40:24.839Z,98433.63
2019-01-04T04:42:54.667Z,98425.14
2019-01-04T04:45:24.548Z,98418.64
2019-01-04T04:47:56.376Z,98420.42
2019-01-04T04:50:26.348Z,98407.95
2019-01-04T04:52:58.416Z,98418.66
2019-01-04T04:55:28.317Z,98413.13
2019-01-04T04:57:58.739Z,98407.91
2019-01-04T05:00:28.950Z,98413.44
2019-01-04T05:03:03.082Z,98420.03
2019-01-04T05:05:33.736Z,98424.69
2019-01-04T05:08:03.606Z,98426.17
2019-01-04T05:10:34.529Z,98425.83
2019-01-04T05:13:07.545Z,98430.52
2019-01-04T05:15:51.433Z,98434.32
2019-01-04T05:18:30.443Z,98432.25
2019-01-04T05:21:03.826Z,98431.41
2019-01-04T05:23:42.614Z,98436.67
2019-01-04T05:26:30.799Z,98433.18
2019-01-04T05:29:04.235Z,98441.62
2019-01-04T05:31:42.551Z,98445.30
2019-01-04T05:34:13.295Z,98444.16
2019-01-04T05:36:48.100Z,98452.38
2019-01-04T05:39:19.391Z,98449.88
2019-01-04T05:41:56.679Z,98439.05
2019-01-04T05:44:29.676Z,98458.05
2019-01-04T05:47:09.244Z,98458.72
2019-01-04T05:49:39.753Z,98465.29
2019-01-04T05:52:13.871Z,98464.59
2019-01-04T05:54:46.141Z,98455.38
2019-01-04T05:57:16.667Z,98458.11
2019-01-04T05:59:46.580Z,98459.63
2019-01-04T06:02:20.898Z,98452.77
2019-01-04T06:04:50.904Z,98452.55
2019-01-04T06:07:26.204Z,98444.48
2019-01-04T06:09:58.063Z,98444.99
2019-01-04T06:12:29.498Z,98443.06
2019-01-04T06:14:59.279Z,98443.56
2019-01-04T06:17:29.920Z,98450.92
2019-01-04T06:20:00.267Z,98465.62
2019-01-04T06:22:35.309Z,98464.72
2019-01-04T06:25:06.827Z,98468.44
2019-01-04T06:27:36.747Z,98465.99
2019-01-04T06:30:10.229Z,98468.97
2019-01-04T06:32:40.883Z,98473.00
2019-01-04T06:35:13.862Z,98475.84
2019-01-04T06:37:44.220Z,98465.25
2019-01-04T06:40:17.485Z,98470.11
2019-01-04T06:42:47.555Z,98471.00
2019-01-04T06:45:19.477Z,98474.05
2019-01-04T06:47:50.939Z,98483.17
2019-01-04T06:50:20.742Z,98489.81
2019-01-04T06:52:50.621Z,98495.55
2019-01-04T06:55:23.338Z,98501.09
2019-01-04T06:57:55.904Z,98500.67
2019-01-04T07:00:25.743Z,98501.94
2019-01-04T07:02:59.674Z,98503.79
2019-01-04T07:05:29.548Z,98509.13
2019-01-04T07:07:59.336Z,98503.08
2019-01-04T07:10:29.108Z,98505.23
2019-01-04T07:12:59.595Z,98507.93
2019-01-04T07:15:29.535Z,98511.50
2019-01-04T07:17:59.407Z,98514.72
2019-01-04T07:20:29.243Z,98519.89
2019-01-04T07:23:00.208Z,98515.63
2019-01-04T07:25:30.242Z,98524.74
2019-01-04T07:28:00.001Z,98522.34
2019-01-04T07:30:29.764Z,98530.81
2019-01-04T07:32:59.804Z,98525.80
2019-01-04T07:35:29.763Z,98537.60
2019-01-04T07:38:00.135Z,98536.30
2019-01-04T07:40:30.046Z,98537.81
2019-01-04T07:42:59.915Z,98550.28
2019-01-04T07:45:29.692Z,98546.97
2019-01-04T07:47:59.523Z,98548.33
2019-01-04T07:50:29.354Z,98554.47
2019-01-04T07:52:59.121Z,98559.75
2019-01-04T07:55:28.984Z,98559.75
2019-01-04T07:57:59.006Z,98558.40
2019-01-04T08:00:29.016Z,98568.31
2019-01-04T08:02:58.786Z,98568.31
2019-01-04T08:05:28.403Z,98581.01
2019-01-04T08:07:58.466Z,98573.69
2019-01-04T08:10:29.811Z,98578.47
2019-01-04T08:13:01.448Z,98587.36
2019-01-04T08:15:31.389Z,98596.20
2019-01-04T08:18:01.195Z,98603.30
2019-01-04T08:20:31.122Z,98603.18
2019-01-04T08:23:01.181Z,98603.18
2019-01-04T08:25:31.064Z,98596.48
2019-01-04T08:28:00.829Z,98596.48
2019-01-04T08:30:30.642Z,98607.27
2019-01-04T08:33:00.593Z,98615.72
2019-01-04T08:35:30.517Z,98602.23
2019-01-04T08:38:00.552Z,98616.81
2019-01-04T08:40:30.432Z,98603.37
2019-01-04T08:43:00.511Z,98613.02
2019-01-04T08:45:30.376Z,98618.30
2019-01-04T08:48:01.993Z,98624.00
2019-01-04T08:50:31.800Z,98618.70
2019-01-04T08:53:01.855Z,98620.34
2019-01-04T08:55:31.680Z,98616.34
2019-01-04T08:58:01.448Z,98621.28
2019-01-04T09:00:33.138Z,98627.89
2019-01-04T09:03:09.531Z,98631.05
2019-01-04T09:05:42.011Z,98634.94
2019-01-04T09:08:11.815Z,98634.78
2019-01-04T09:10:41.912Z,98638.75
2019-01-04T09:13:11.894Z,98625.47
2019-01-04T09:15:41.771Z,98640.66
2019-01-04T09:18:11.875Z,98638.09
2019-01-04T09:20:41.690Z,98636.45
2019-01-04T09:23:11.948Z,98638.91
2019-01-04T09:25:43.646Z,98637.08
2019-01-04T09:28:17.998Z,98642.11
2019-01-04T09:30:46.001Z,98643.83
2019-01-04T09:33:19.500Z,98641.04
2019-01-04T09:35:49.852Z,98642.41
2019-01-04T09:38:19.902Z,98646.01
2019-01-04T09:40:52.908Z,98651.19
2019-01-04T09:43:23.283Z,98637.02
2019-01-04T09:45:55.053Z,98642.23
2019-01-04T09:48:25.134Z,98641.38
2019-01-04T09:50:55.150Z,98649.81
2019-01-04T09:53:26.697Z,98650.70
2019-01-04T09:55:56.558Z,98644.50
2019-01-04T09:58:26.399Z,98651.35
2019-01-04T10:00:57.310Z,98638.59
2019-01-04T10:03:32.862Z,98645.52
2019-01-04T10:06:03.619Z,98634.20
2019-01-04T10:08:33.480Z,98639.94
2019-01-04T10:11:03.512Z,98634.08
2019-01-04T10:13:33.312Z,98624.11
2019-01-04T10:16:03.271Z,98619.59
2019-01-04T10:18:33.118Z,98619.88
2019-01-04T10:21:03.002Z,98613.70
2019-01-04T10:23:33.752Z,98614.03
2019-01-04T10:26:03.549Z,98606.78
2019-01-04T10:28:34.633Z,98605.55
2019-01-04T10:31:05.401Z,98610.45
2019-01-04T10:33:35.245Z,98608.06
2019-01-04T10:36:05.471Z,98595.77
2019-01-04T10:38:35.377Z,98604.94
2019-01-04T10:41:06.764Z,98602.90
2019-01-04T10:43:36.710Z,98606.04
2019-01-04T10:46:08.641Z,98597.72
2019-01-04T10:48:38.546Z,98596.39
2019-01-04T10:51:08.317Z,98595.88
2019-01-04T10:53:38.382Z,98599.80
2019-01-04T10:56:08.247Z,98591.65
2019-01-04T10:58:38.423Z,98591.78
2019-01-04T11:01:08.328Z,98589.64
2019-01-04T11:03:41.795Z,98580.31
2019-01-04T11:06:16.308Z,98580.54
2019-01-04T11:08:46.375Z,98576.70
2019-01-04T11:11:16.505Z,98576.70
2019-01-04T11:13:46.395Z,98575.40
2019-01-04T11:16:16.712Z,98580.01
2019-01-04T11:18:48.094Z,98584.00
2019-01-04T11:21:20.694Z,98573.34
2019-01-04T11:24:13.210Z,98571.00
2019-01-04T11:26:49.356Z,98571.00
2019-01-04T11:29:37.532Z,98569.19
2019-01-04T11:32:25.466Z,98571.98
2019-01-04T11:35:18.099Z,98569.48
2019-01-04T11:37:59.795Z,98563.50
2019-01-04T11:40:50.125Z,98563.50
2019-01-04T11:43:41.989Z,98555.31
2019-01-04T11:46:17.671Z,98553.85
2019-01-04T11:48:56.503Z,98553.85
2019-01-04T11:51:29.754Z,98550.21
2019-01-04T11:54:01.595Z,98550.21
2019-01-04T11:56:36.958Z,98542.76
2019-01-04T11:59:09.563Z,98542.76
2019-01-04T12:01:40.172Z,98533.62
2019-01-04T12:04:10.049Z,98529.59
2019-01-04T12:06:43.468Z,98516.80
2019-01-04T12:09:14.468Z,98516.80
2019-01-04T12:11:46.802Z,98517.09
2019-01-04T12:14:17.756Z,98509.38
2019-01-04T12:16:54.475Z,98506.70
2019-01-04T12:19:25.567Z,98509.87
2019-01-04T12:21:59.736Z,98509.16
2019-01-04T12:24:30.446Z,98513.82
2019-01-04T12:27:04.425Z,98509.22
2019-01-04T12:29:34.987Z,98516.53
2019-01-04T12:32:09.630Z,98516.25
2019-01-04T12:34:41.133Z,98512.39
2019-01-04T12:37:16.323Z,98512.94
2019-01-04T12:39:47.456Z,98506.44
2019-01-04T12:42:17.226Z,98500.96
2019-01-04T12:44:47.283Z,98502.44
2019-01-04T12:47:18.558Z,98501.81
2019-01-04T12:49:48.415Z,98499.11
2019-01-04T12:52:20.891Z,98505.73
2019-01-04T12:54:51.687Z,98502.22
2019-01-04T12:57:21.742Z,98494.40
2019-01-04T12:59:58.934Z,98488.84
2019-01-04T13:02:33.716Z,98491.61
2019-01-04T13:05:05.638Z,98487.94
2019-01-04T13:07:37.874Z,98482.90
2019-01-04T13:10:17.016Z,98482.90
2019-01-04T13:12:47.407Z,98486.02
2019-01-04T13:15:24.570Z,98485.61
2019-01-04T13:17:56.117Z,98494.78
2019-01-04T13:20:28.002Z,98490.41
2019-01-04T13:22:59.788Z,98492.97
2019-01-04T13:25:31.718Z,98493.26
2019-01-04T13:28:02.681Z,98497.98
2019-01-04T13:30:32.790Z,98491.81
2019-01-04T13:33:02.959Z,98500.02
2019-01-04T13:35:33.384Z,98495.27
2019-01-04T13:38:03.450Z,98505.17
2019-01-04T13:40:33.880Z,98501.65
2019-01-04T13:43:07.221Z,98495.25
2019-01-04T13:49:03.871Z,98501.28
2019-01-04T13:51:35.899Z,98502.48
2019-01-04T13:54:08.186Z,98503.03
2019-01-04T13:56:39.574Z,98503.30
2019-01-04T13:59:11.039Z,98503.30
2019-01-04T14:01:42.111Z,98509.38
2019-01-04T14:04:17.350Z,98501.08
2019-01-04T14:06:49.223Z,98501.75
2019-01-04T14:09:19.903Z,98488.57
2019-01-04T14:11:52.072Z,98515.27
2019-01-04T14:14:27.541Z,98493.73
2019-01-04T14:16:59.766Z,98494.09
2019-01-04T14:19:31.972Z,98489.12
2019-01-04T14:22:02.594Z,98490.48
2019-01-04T14:24:33.280Z,98487.03
2019-01-04T14:27:08.103Z,98487.81
2019-01-04T14:29:39.837Z,98482.73
2019-01-04T14:32:13.988Z,98482.73
2019-01-04T14:34:44.925Z,98470.53
2019-01-04T14:37:20.046Z,98470.53
2019-01-04T14:39:50.630Z,98488.48
2019-01-04T14:42:22.890Z,98486.31
2019-01-04T14:44:54.862Z,98488.97
2019-01-04T14:47:26.303Z,98493.83
2019-01-04T14:49:56.513Z,98482.50
2019-01-04T14:52:30.390Z,98474.88
2019-01-04T14:55:00.987Z,98481.52
2019-01-04T14:57:32.093Z,98477.70
2019-01-04T15:00:02.310Z,98476.06
2019-01-04T15:02:36.736Z,98470.08
2019-01-04T15:05:14.987Z,98483.36
2019-01-04T15:07:46.255Z,98480.38
2019-01-04T15:10:16.785Z,98477.73
2019-01-04T15:12:49.171Z,98460.77
2019-01-04T15:15:19.047Z,98468.92
2019-01-04T15:17:50.353Z,98472.91
2019-01-04T15:20:20.111Z,98472.59
2019-01-04T15:22:50.948Z,98467.09
2019-01-04T15:25:21.706Z,98462.94
2019-01-04T15:27:53.123Z,98474.58
2019-01-04T15:30:23.001Z,98470.13
2019-01-04T15:32:53.167Z,98461.63
2019-01-04T15:35:23.026Z,98475.27
2019-01-04T15:37:55.839Z,98474.09
2019-01-04T15:40:25.640Z,98473.77
2019-01-04T15:42:55.488Z,98471.95
2019-01-04T15:45:25.479Z,98472.30
2019-01-04T15:47:55.292Z,98466.63
2019-01-04T15:50:25.204Z,98478.44
2019-01-04T15:52:55.455Z,98475.59
2019-01-04T15:55:25.357Z,98476.09
2019-01-04T15:57:55.267Z,98484.05
2019-01-04T16:00:25.392Z,98480.09
2019-01-04T16:03:00.113Z,98485.38
2019-01-04T16:05:31.054Z,98481.89
2019-01-04T16:08:01.072Z,98483.90
2019-01-04T16:10:30.898Z,98480.89
2019-01-04T16:13:00.914Z,98487.21
2019-01-04T16:15:30.763Z,98484.19
2019-01-04T16:18:02.078Z,98488.97
2019-01-04T16:20:32.088Z,98493.66
2019-01-04T16:23:02.413Z,98493.97
2019-01-04T16:25:32.384Z,98492.55
2019-01-04T16:28:02.369Z,98495.83
2019-01-04T16:30:32.251Z,98496.28
2019-01-04T16:33:02.068Z,98494.52
2019-01-04T16:35:31.836Z,98500.06
2019-01-04T16:38:01.695Z,98498.66
2019-01-04T16:40:31.732Z,98494.91
2019-01-04T16:43:01.678Z,98504.91
2019-01-04T16:45:31.565Z,98504.06
2019-01-04T16:48:01.471Z,98502.03
2019-01-04T16:50:33.071Z,98503.47
2019-01-04T16:53:03.047Z,98510.85
2019-01-04T16:55:32.756Z,98511.09
2019-01-04T16:58:04.378Z,98517.47
2019-01-04T17:00:34.327Z,98518.62
2019-01-04T17:03:04.342Z,98517.99
2019-01-04T17:05:35.988Z,98520.45
2019-01-04T17:08:06.437Z,98517.69
2019-01-04T17:10:36.222Z,98515.61
2019-01-04T17:13:06.021Z,98500.73
2019-01-04T17:15:35.972Z,98522.09
2019-01-04T17:18:05.791Z,98502.13
2019-01-04T17:20:35.709Z,98515.86
2019-01-04T17:23:05.463Z,98518.67
2019-01-04T17:28:19.934Z,98518.19
2019-01-04T17:30:51.795Z,98519.56
2019-01-04T17:33:24.990Z,98519.31
2019-01-04T17:35:58.785Z,98509.34
2019-01-04T17:38:31.435Z,98520.12
2019-01-04T17:41:06.252Z,98515.88
2019-01-04T17:43:40.526Z,98518.80
2019-01-04T17:46:12.428Z,98519.96
2019-01-04T17:48:44.343Z,98531.02
2019-01-04T17:51:16.688Z,98514.87
2019-01-04T17:53:50.033Z,98526.66
2019-01-04T17:56:20.136Z,98522.29
2019-01-04T17:58:50.909Z,98516.20
2019-01-04T18:01:22.386Z,98522.02
2019-01-04T18:04:13.040Z,98524.50
2019-01-04T18:06:56.924Z,98527.32
2019-01-04T18:09:31.407Z,98529.59
2019-01-04T18:12:05.664Z,98532.57
2019-01-04T18:14:40.459Z,98532.08
2019-01-04T18:17:16.017Z,98529.33
2019-01-04T18:19:50.740Z,98536.58
2019-01-04T18:22:27.296Z,98532.29
2019-01-04T18:25:02.895Z,98534.83
2019-01-04T18:27:38.330Z,98538.91
2019-01-04T18:30:13.267Z,98543.47
2019-01-04T18:32:46.700Z,98536.84
2019-01-04T18:35:19.301Z,98537.00
2019-01-04T18:37:56.216Z,98540.19
2019-01-04T18:40:51.550Z,98542.00
2019-01-04T18:43:25.597Z,98542.56
2019-01-04T18:45:58.429Z,98544.92
2019-01-04T18:48:29.774Z,98542.84
2019-01-04T18:51:01.045Z,98531.88
2019-01-04T18:53:32.609Z,98533.57
2019-01-04T18:56:02.733Z,98531.70
2019-01-04T18:58:32.644Z,98532.27
2019-01-04T19:01:02.561Z,98526.50
2019-01-04T19:03:33.783Z,98531.06
2019-01-04T19:06:03.972Z,98534.38
2019-01-04T19:08:33.999Z,98523.50
2019-01-04T19:11:03.735Z,98525.04
2019-01-04T19:13:33.537Z,98532.68
2019-01-04T19:16:03.385Z,98533.23
2019-01-04T19:18:33.720Z,98525.13
2019-01-04T19:21:04.704Z,98521.84
2019-01-04T19:23:39.527Z,98519.83
2019-01-04T19:26:06.173Z,98519.86
2019-01-04T19:28:35.933Z,98516.48
2019-01-04T19:31:06.056Z,98523.95
2019-01-04T19:33:38.965Z,98519.59
2019-01-04T19:36:08.894Z,98526.39
2019-01-04T19:38:38.668Z,98512.05
2019-01-04T19:41:14.223Z,98516.41
2019-01-04T19:43:45.184Z,98514.93
2019-01-04T19:46:15.693Z,98508.53
2019-01-04T19:48:46.284Z,98513.13
2019-01-04T19:51:17.306Z,98508.92
2019-01-04T19:53:49.094Z,98513.52
2019-01-04T19:56:20.087Z,98512.26
2019-01-04T19:58:50.322Z,98502.36
2019-01-04T20:01:20.808Z,98508.05
2019-01-04T20:03:54.871Z,98508.95
2019-01-04T20:06:35.890Z,98501.95
2019-01-04T20:09:50.491Z,98504.18
2019-01-04T20:12:43.952Z,98506.05
2019-01-04T20:15:30.680Z,98491.67
2019-01-04T20:18:18.718Z,98502.11
2019-01-04T20:21:06.787Z,98501.84
2019-01-04T20:23:47.522Z,98496.95
2019-01-04T20:26:31.007Z,98501.50
2019-01-04T20:29:11.585Z,98504.84
2019-01-04T20:31:43.074Z,98496.18
2019-01-04T20:34:15.763Z,98499.52
2019-01-04T20:36:57.679Z,98493.43
2019-01-04T20:39:55.943Z,98492.45
2019-01-04T20:42:41.013Z,98498.02
2019-01-04T20:45:26.445Z,98492.19
2019-01-04T20:48:13.150Z,98482.08
2019-01-04T20:50:52.135Z,98480.77
2019-01-04T20:53:28.743Z,98489.66
2019-01-04T20:56:05.275Z,98490.44
2019-01-04T20:58:54.034Z,98483.36
2019-01-04T21:01:25.880Z,98479.69
2019-01-04T21:03:57.271Z,98475.81
2019-01-04T21:06:42.517Z,98479.88
2019-01-04T21:09:17.871Z,98476.41
2019-01-04T21:11:57.727Z,98480.58
2019-01-04T21:14:35.381Z,98477.31
2019-01-04T21:17:10.795Z,98469.87
2019-01-04T21:19:43.872Z,98470.42
2019-01-04T21:22:35.271Z,98468.89
2019-01-04T21:25:17.383Z,98467.34
2019-01-04T21:27:57.846Z,98463.86
2019-01-04T21:30:45.435Z,98468.06
2019-01-04T21:33:29.205Z,98460.79
2019-01-04T21:36:01.139Z,98461.68
2019-01-04T21:38:49.530Z,98465.88
2019-01-04T21:41:33.164Z,98465.55
2019-01-04T21:44:17.727Z,98456.86
2019-01-04T21:46:51.306Z,98458.84
2019-01-04T21:49:36.574Z,98462.14
2019-01-04T21:52:20.245Z,98459.17
2019-01-04T21:55:14.842Z,98460.49
2019-01-04T21:58:06.576Z,98456.86
2019-01-04T22:01:03.706Z,98454.74
2019-01-04T22:03:45.341Z,98444.70
2019-01-04T22:06:34.270Z,98448.55
2019-01-04T22:09:07.603Z,98454.34
2019-01-04T22:11:54.682Z,98451.33
2019-01-04T22:14:43.533Z,98444.55
2019-01-04T22:17:25.043Z,98442.81
2019-01-04T22:20:00.283Z,98440.50
2019-01-04T22:22:42.001Z,98430.24
2019-01-04T22:25:14.736Z,98435.22
2019-01-04T22:28:02.987Z,98432.58
2019-01-04T22:30:47.884Z,98428.84
2019-01-04T22:33:31.553Z,98430.94
2019-01-04T22:36:11.747Z,98427.62
2019-01-04T22:39:03.475Z,98423.16
2019-01-04T22:41:45.192Z,98421.53
2019-01-04T22:44:47.326Z,98418.59
2019-01-04T22:47:30.387Z,98409.02
2019-01-04T22:50:07.367Z,98405.79
2019-01-04T22:52:51.879Z,98400.13
2019-01-04T22:55:54.543Z,98395.47
2019-01-04T22:58:35.072Z,98384.77
2019-01-04T23:01:25.138Z,98381.03
2019-01-04T23:04:15.134Z,98384.62
2019-01-04T23:06:59.545Z,98377.53
2019-01-04T23:09:48.761Z,98375.70
2019-01-04T23:12:32.591Z,98371.72
2019-01-04T23:15:11.530Z,98375.80
2019-01-04T23:17:52.081Z,98373.17
2019-01-04T23:20:40.428Z,98369.42
2019-01-04T23:23:14.831Z,98372.12
2019-01-04T23:26:05.861Z,98367.33
2019-01-04T23:28:54.639Z,98365.88
2019-01-04T23:31:31.990Z,98371.38
2019-01-04T23:34:08.501Z,98369.42
2019-01-04T23:36:45.934Z,98367.41
2019-01-04T23:39:21.460Z,98366.42
2019-01-04T23:42:09.249Z,98361.55
2019-01-04T23:44:41.355Z,98361.80
2019-01-04T23:47:19.088Z,98356.77
2019-01-04T23:50:06.767Z,98350.59
2019-01-04T23:52:45.686Z,98349.57
2019-01-04T23:55:20.747Z,98347.91
2019-01-04T23:57:52.202Z,98346.19
